sensor_id;sensor_type;location;lat;lon;timestamp;temperature;humidity
39957;DHT22;48483;44.640;7.494;2023-03-24T00:02:06;13.60;99.90
39957;DHT22;48483;44.640;7.494;2023-03-24T00:04:33;13.60;99.90
39957;DHT22;48483;44.640;7.494;2023-03-24T00:07:01;13.50;99.90
39957;DHT22;48483;44.640;7.494;2023-03-24T00:09:29;13.50;99.90
39957;DHT22;48483;44.640;7.494;2023-03-24T00:11:57;13.40;99.90
39957;DHT22;48483;44.640;7.494;2023-03-24T00:14:24;13.40;99.90
39957;DHT22;48483;44.640;7.494;2023-03-24T00:16:51;13.40;99.90
39957;DHT22;48483;44.640;7.494;2023-03-24T00:19:20;13.40;99.90
39957;DHT22;48483;44.640;7.494;2023-03-24T00:21:48;13.30;99.90
39957;DHT22;48483;44.640;7.494;2023-03-24T00:24:14;13.30;99.90
39957;DHT22;48483;44.640;7.494;2023-03-24T00:26:41;13.30;99.90
39957;DHT22;48483;44.640;7.494;2023-03-24T00:29:10;13.40;99.90
39957;DHT22;48483;44.640;7.494;2023-03-24T00:31:37;13.40;99.90
39957;DHT22;48483;44.640;7.494;2023-03-24T00:34:05;13.40;99.90
39957;DHT22;48483;44.640;7.494;2023-03-24T00:36:34;13.40;99.90
39957;DHT22;48483;44.640;7.494;2023-03-24T00:39:02;13.40;99.90
39957;DHT22;48483;44.640;7.494;2023-03-24T00:41:30;13.40;99.90
39957;DHT22;48483;44.640;7.494;2023-03-24T00:43:58;13.40;99.90
39957;DHT22;48483;44.640;7.494;2023-03-24T00:46:27;13.40;99.90
39957;DHT22;48483;44.640;7.494;2023-03-24T00:48:54;13.30;99.90
39957;DHT22;48483;44.640;7.494;2023-03-24T00:51:29;13.40;99.90
39957;DHT22;48483;44.640;7.494;2023-03-24T00:53:56;13.40;99.90
39957;DHT22;48483;44.640;7.494;2023-03-24T00:56:25;13.40;99.90
39957;DHT22;48483;44.640;7.494;2023-03-24T00:58:53;13.40;99.90
39957;DHT22;48483;44.640;7.494;2023-03-24T01:01:24;13.30;99.90
39957;DHT22;48483;44.640;7.494;2023-03-24T01:03:52;13.40;99.90
39957;DHT22;48483;44.640;7.494;2023-03-24T01:06:19;13.30;99.90
39957;DHT22;48483;44.640;7.494;2023-03-24T01:08:48;13.30;99.90
39957;DHT22;48483;44.640;7.494;2023-03-24T01:11:15;13.40;99.90
39957;DHT22;48483;44.640;7.494;2023-03-24T01:13:43;13.30;99.90
39957;DHT22;48483;44.640;7.494;2023-03-24T01:16:10;13.30;99.90
39957;DHT22;48483;44.640;7.494;2023-03-24T01:18:37;13.30;99.90
39957;DHT22;48483;44.640;7.494;2023-03-24T01:21:09;13.30;99.90
39957;DHT22;48483;44.640;7.494;2023-03-24T01:23:37;13.30;99.90
39957;DHT22;48483;44.640;7.494;2023-03-24T01:26:06;13.30;99.90
39957;DHT22;48483;44.640;7.494;2023-03-24T01:28:33;13.30;99.90
39957;DHT22;48483;44.640;7.494;2023-03-24T01:31:07;13.20;99.90
39957;DHT22;48483;44.640;7.494;2023-03-24T01:33:34;13.30;99.90
39957;DHT22;48483;44.640;7.494;2023-03-24T01:36:01;13.30;99.90
39957;DHT22;48483;44.640;7.494;2023-03-24T01:38:29;13.30;99.90
39957;DHT22;48483;44.640;7.494;2023-03-24T01:40:56;13.20;99.90
39957;DHT22;48483;44.640;7.494;2023-03-24T01:43:25;13.20;99.90
39957;DHT22;48483;44.640;7.494;2023-03-24T01:46:00;13.20;99.90
39957;DHT22;48483;44.640;7.494;2023-03-24T01:48:30;13.20;99.90
39957;DHT22;48483;44.640;7.494;2023-03-24T01:51:06;13.10;99.90
39957;DHT22;48483;44.640;7.494;2023-03-24T01:53:37;13.10;99.90
39957;DHT22;48483;44.640;7.494;2023-03-24T01:56:07;13.10;99.90
39957;DHT22;48483;44.640;7.494;2023-03-24T01:58:42;13.10;99.90
39957;DHT22;48483;44.640;7.494;2023-03-24T02:01:22;13.10;99.90
39957;DHT22;48483;44.640;7.494;2023-03-24T02:04:13;13.00;99.90
39957;DHT22;48483;44.640;7.494;2023-03-24T02:06:43;13.10;99.90
39957;DHT22;48483;44.640;7.494;2023-03-24T02:09:13;13.00;99.90
39957;DHT22;48483;44.640;7.494;2023-03-24T02:11:41;13.00;99.90
39957;DHT22;48483;44.640;7.494;2023-03-24T02:14:08;13.00;99.90
39957;DHT22;48483;44.640;7.494;2023-03-24T02:17:01;13.00;99.90
39957;DHT22;48483;44.640;7.494;2023-03-24T02:19:54;13.00;99.90
39957;DHT22;48483;44.640;7.494;2023-03-24T02:23:05;13.00;99.90
39957;DHT22;48483;44.640;7.494;2023-03-24T02:25:54;13.00;99.90
39957;DHT22;48483;44.640;7.494;2023-03-24T02:28:36;13.00;99.90
39957;DHT22;48483;44.640;7.494;2023-03-24T02:31:20;13.00;99.90
39957;DHT22;48483;44.640;7.494;2023-03-24T02:34:30;12.90;99.90
39957;DHT22;48483;44.640;7.494;2023-03-24T02:37:45;12.90;99.90
39957;DHT22;48483;44.640;7.494;2023-03-24T02:40:31;13.00;99.90
39957;DHT22;48483;44.640;7.494;2023-03-24T02:43:10;12.90;99.90
39957;DHT22;48483;44.640;7.494;2023-03-24T02:45:46;12.90;99.90
39957;DHT22;48483;44.640;7.494;2023-03-24T02:48:20;12.90;99.90
39957;DHT22;48483;44.640;7.494;2023-03-24T02:50:51;12.80;99.90
39957;DHT22;48483;44.640;7.494;2023-03-24T02:53:26;12.80;99.90
39957;DHT22;48483;44.640;7.494;2023-03-24T02:56:22;12.80;99.90
39957;DHT22;48483;44.640;7.494;2023-03-24T02:59:01;12.80;99.90
39957;DHT22;48483;44.640;7.494;2023-03-24T03:01:36;12.80;99.90
39957;DHT22;48483;44.640;7.494;2023-03-24T03:04:26;12.70;99.90
39957;DHT22;48483;44.640;7.494;2023-03-24T03:06:57;12.70;99.90
39957;DHT22;48483;44.640;7.494;2023-03-24T03:09:27;12.60;99.90
39957;DHT22;48483;44.640;7.494;2023-03-24T03:11:57;12.60;99.90
39957;DHT22;48483;44.640;7.494;2023-03-24T03:14:29;12.60;99.90
39957;DHT22;48483;44.640;7.494;2023-03-24T03:17:00;12.60;99.90
39957;DHT22;48483;44.640;7.494;2023-03-24T03:19:32;12.60;99.90
39957;DHT22;48483;44.640;7.494;2023-03-24T03:22:01;12.60;99.90
39957;DHT22;48483;44.640;7.494;2023-03-24T03:24:34;12.60;99.90
39957;DHT22;48483;44.640;7.494;2023-03-24T03:27:07;12.60;99.90
39957;DHT22;48483;44.640;7.494;2023-03-24T03:29:42;12.60;99.90
39957;DHT22;48483;44.640;7.494;2023-03-24T03:32:16;12.60;99.90
39957;DHT22;48483;44.640;7.494;2023-03-24T03:34:45;12.60;99.90
39957;DHT22;48483;44.640;7.494;2023-03-24T03:37:22;12.60;99.90
39957;DHT22;48483;44.640;7.494;2023-03-24T03:39:55;12.60;99.90
39957;DHT22;48483;44.640;7.494;2023-03-24T03:42:24;12.50;99.90
39957;DHT22;48483;44.640;7.494;2023-03-24T03:44:51;12.50;99.90
39957;DHT22;48483;44.640;7.494;2023-03-24T03:47:19;12.50;99.90
39957;DHT22;48483;44.640;7.494;2023-03-24T03:49:49;12.50;99.90
39957;DHT22;48483;44.640;7.494;2023-03-24T03:52:17;12.50;99.90
39957;DHT22;48483;44.640;7.494;2023-03-24T03:54:45;12.50;99.90
39957;DHT22;48483;44.640;7.494;2023-03-24T03:57:13;12.50;99.90
39957;DHT22;48483;44.640;7.494;2023-03-24T04:00:15;12.50;99.90
39957;DHT22;48483;44.640;7.494;2023-03-24T04:03:11;12.50;99.90
39957;DHT22;48483;44.640;7.494;2023-03-24T04:05:47;12.50;99.90
39957;DHT22;48483;44.640;7.494;2023-03-24T04:08:25;12.50;99.90
39957;DHT22;48483;44.640;7.494;2023-03-24T04:11:11;12.50;99.90
39957;DHT22;48483;44.640;7.494;2023-03-24T04:14:15;12.50;99.90
39957;DHT22;48483;44.640;7.494;2023-03-24T04:16:58;12.50;99.90
39957;DHT22;48483;44.640;7.494;2023-03-24T04:19:45;12.50;99.90
39957;DHT22;48483;44.640;7.494;2023-03-24T04:22:23;12.40;99.90
39957;DHT22;48483;44.640;7.494;2023-03-24T04:25:09;12.40;99.90
39957;DHT22;48483;44.640;7.494;2023-03-24T04:27:44;12.50;99.90
39957;DHT22;48483;44.640;7.494;2023-03-24T04:30:17;12.50;99.90
39957;DHT22;48483;44.640;7.494;2023-03-24T04:32:55;12.50;99.90
39957;DHT22;48483;44.640;7.494;2023-03-24T04:35:29;12.40;99.90
39957;DHT22;48483;44.640;7.494;2023-03-24T04:38:22;12.40;99.90
39957;DHT22;48483;44.640;7.494;2023-03-24T04:40:59;12.40;99.90
39957;DHT22;48483;44.640;7.494;2023-03-24T04:43:29;12.40;99.90
39957;DHT22;48483;44.640;7.494;2023-03-24T04:46:02;12.40;99.90
39957;DHT22;48483;44.640;7.494;2023-03-24T04:48:36;12.40;99.90
39957;DHT22;48483;44.640;7.494;2023-03-24T04:51:26;12.30;99.90
39957;DHT22;48483;44.640;7.494;2023-03-24T04:54:17;12.40;99.90
39957;DHT22;48483;44.640;7.494;2023-03-24T04:56:51;12.40;99.90
39957;DHT22;48483;44.640;7.494;2023-03-24T04:59:23;12.40;99.90
39957;DHT22;48483;44.640;7.494;2023-03-24T05:01:51;12.30;99.90
39957;DHT22;48483;44.640;7.494;2023-03-24T05:04:27;12.30;99.90
39957;DHT22;48483;44.640;7.494;2023-03-24T05:06:55;12.30;99.90
39957;DHT22;48483;44.640;7.494;2023-03-24T05:09:25;12.30;99.90
39957;DHT22;48483;44.640;7.494;2023-03-24T05:11:52;12.30;99.90
39957;DHT22;48483;44.640;7.494;2023-03-24T05:14:21;12.30;99.90
39957;DHT22;48483;44.640;7.494;2023-03-24T05:16:48;12.30;99.90
39957;DHT22;48483;44.640;7.494;2023-03-24T05:19:17;12.30;99.90
39957;DHT22;48483;44.640;7.494;2023-03-24T05:21:45;12.30;99.90
39957;DHT22;48483;44.640;7.494;2023-03-24T05:24:13;12.30;99.90
39957;DHT22;48483;44.640;7.494;2023-03-24T05:26:40;12.30;99.90
39957;DHT22;48483;44.640;7.494;2023-03-24T05:29:15;12.30;99.90
39957;DHT22;48483;44.640;7.494;2023-03-24T05:31:42;12.30;99.90
39957;DHT22;48483;44.640;7.494;2023-03-24T05:34:15;12.30;99.90
39957;DHT22;48483;44.640;7.494;2023-03-24T05:36:52;12.30;99.90
39957;DHT22;48483;44.640;7.494;2023-03-24T05:39:21;12.30;99.90
39957;DHT22;48483;44.640;7.494;2023-03-24T05:42:07;12.30;99.90
39957;DHT22;48483;44.640;7.494;2023-03-24T05:44:34;12.30;99.90
39957;DHT22;48483;44.640;7.494;2023-03-24T05:47:08;12.30;99.90
39957;DHT22;48483;44.640;7.494;2023-03-24T05:49:35;12.30;99.90
39957;DHT22;48483;44.640;7.494;2023-03-24T05:52:04;12.30;99.90
39957;DHT22;48483;44.640;7.494;2023-03-24T05:54:31;12.30;99.90
39957;DHT22;48483;44.640;7.494;2023-03-24T05:57:11;12.20;99.90
39957;DHT22;48483;44.640;7.494;2023-03-24T05:59:52;12.30;99.90
39957;DHT22;48483;44.640;7.494;2023-03-24T06:02:39;12.30;99.90
39957;DHT22;48483;44.640;7.494;2023-03-24T06:05:18;12.30;99.90
39957;DHT22;48483;44.640;7.494;2023-03-24T06:07:47;12.30;99.90
39957;DHT22;48483;44.640;7.494;2023-03-24T06:10:14;12.30;99.90
39957;DHT22;48483;44.640;7.494;2023-03-24T06:12:48;12.30;99.90
39957;DHT22;48483;44.640;7.494;2023-03-24T06:15:16;12.30;99.90
39957;DHT22;48483;44.640;7.494;2023-03-24T06:17:45;12.40;99.90
39957;DHT22;48483;44.640;7.494;2023-03-24T06:20:24;12.40;99.90
39957;DHT22;48483;44.640;7.494;2023-03-24T06:23:05;12.40;99.90
39957;DHT22;48483;44.640;7.494;2023-03-24T06:25:52;12.40;99.90
39957;DHT22;48483;44.640;7.494;2023-03-24T06:28:24;12.40;99.90
39957;DHT22;48483;44.640;7.494;2023-03-24T06:30:53;12.40;99.90
39957;DHT22;48483;44.640;7.494;2023-03-24T06:33:29;12.40;99.90
39957;DHT22;48483;44.640;7.494;2023-03-24T06:35:56;12.40;99.90
39957;DHT22;48483;44.640;7.494;2023-03-24T06:38:25;12.40;99.90
39957;DHT22;48483;44.640;7.494;2023-03-24T06:40:52;12.40;99.90
39957;DHT22;48483;44.640;7.494;2023-03-24T06:43:19;12.40;99.90
39957;DHT22;48483;44.640;7.494;2023-03-24T06:45:46;12.40;99.90
39957;DHT22;48483;44.640;7.494;2023-03-24T06:48:18;12.40;99.90
39957;DHT22;48483;44.640;7.494;2023-03-24T06:50:45;12.40;99.90
39957;DHT22;48483;44.640;7.494;2023-03-24T06:53:13;12.50;99.90
39957;DHT22;48483;44.640;7.494;2023-03-24T06:55:41;12.40;99.90
39957;DHT22;48483;44.640;7.494;2023-03-24T06:58:09;12.40;99.90
39957;DHT22;48483;44.640;7.494;2023-03-24T07:00:42;12.40;99.90
39957;DHT22;48483;44.640;7.494;2023-03-24T07:03:27;12.40;99.90
39957;DHT22;48483;44.640;7.494;2023-03-24T07:06:12;12.40;99.90
39957;DHT22;48483;44.640;7.494;2023-03-24T07:08:39;12.40;99.90
39957;DHT22;48483;44.640;7.494;2023-03-24T07:11:08;12.50;99.90
39957;DHT22;48483;44.640;7.494;2023-03-24T07:13:37;12.50;99.90
39957;DHT22;48483;44.640;7.494;2023-03-24T07:16:05;12.60;99.90
39957;DHT22;48483;44.640;7.494;2023-03-24T07:18:33;12.70;99.90
39957;DHT22;48483;44.640;7.494;2023-03-24T07:21:04;12.80;99.90
39957;DHT22;48483;44.640;7.494;2023-03-24T07:23:32;12.90;99.90
39957;DHT22;48483;44.640;7.494;2023-03-24T07:26:22;12.90;99.90
39957;DHT22;48483;44.640;7.494;2023-03-24T07:28:49;13.00;99.90
39957;DHT22;48483;44.640;7.494;2023-03-24T07:31:30;13.00;99.90
39957;DHT22;48483;44.640;7.494;2023-03-24T07:34:06;12.80;99.90
39957;DHT22;48483;44.640;7.494;2023-03-24T07:36:35;12.80;99.90
39957;DHT22;48483;44.640;7.494;2023-03-24T07:39:04;12.90;99.90
39957;DHT22;48483;44.640;7.494;2023-03-24T07:41:35;12.90;99.90
39957;DHT22;48483;44.640;7.494;2023-03-24T07:44:08;12.90;99.90
39957;DHT22;48483;44.640;7.494;2023-03-24T07:46:41;12.90;99.90
39957;DHT22;48483;44.640;7.494;2023-03-24T07:49:08;12.90;99.90
39957;DHT22;48483;44.640;7.494;2023-03-24T07:51:34;13.00;99.90
39957;DHT22;48483;44.640;7.494;2023-03-24T07:54:24;13.00;99.90
39957;DHT22;48483;44.640;7.494;2023-03-24T07:56:53;13.00;99.90
39957;DHT22;48483;44.640;7.494;2023-03-24T07:59:20;13.10;99.90
39957;DHT22;48483;44.640;7.494;2023-03-24T08:01:50;13.20;99.90
39957;DHT22;48483;44.640;7.494;2023-03-24T08:04:20;13.20;99.90
39957;DHT22;48483;44.640;7.494;2023-03-24T08:06:58;13.30;99.90
39957;DHT22;48483;44.640;7.494;2023-03-24T08:09:25;13.40;99.90
39957;DHT22;48483;44.640;7.494;2023-03-24T08:11:53;13.50;99.90
39957;DHT22;48483;44.640;7.494;2023-03-24T08:14:20;13.40;99.90
39957;DHT22;48483;44.640;7.494;2023-03-24T08:16:47;13.50;99.90
39957;DHT22;48483;44.640;7.494;2023-03-24T08:19:13;13.60;99.90
39957;DHT22;48483;44.640;7.494;2023-03-24T08:21:40;13.60;99.90
39957;DHT22;48483;44.640;7.494;2023-03-24T08:24:07;13.70;99.90
39957;DHT22;48483;44.640;7.494;2023-03-24T08:26:34;13.70;99.90
39957;DHT22;48483;44.640;7.494;2023-03-24T08:29:02;13.70;99.90
39957;DHT22;48483;44.640;7.494;2023-03-24T08:31:31;13.60;99.90
39957;DHT22;48483;44.640;7.494;2023-03-24T08:33:58;13.70;99.90
39957;DHT22;48483;44.640;7.494;2023-03-24T08:36:25;13.80;99.90
39957;DHT22;48483;44.640;7.494;2023-03-24T08:38:52;13.80;99.90
39957;DHT22;48483;44.640;7.494;2023-03-24T08:41:20;13.90;99.90
39957;DHT22;48483;44.640;7.494;2023-03-24T08:43:47;13.80;99.90
39957;DHT22;48483;44.640;7.494;2023-03-24T08:46:15;14.00;99.90
39957;DHT22;48483;44.640;7.494;2023-03-24T08:48:42;14.10;99.90
39957;DHT22;48483;44.640;7.494;2023-03-24T08:51:10;14.00;99.90
39957;DHT22;48483;44.640;7.494;2023-03-24T08:53:37;14.00;99.90
39957;DHT22;48483;44.640;7.494;2023-03-24T08:56:04;14.10;99.90
39957;DHT22;48483;44.640;7.494;2023-03-24T08:58:31;14.30;99.90
39957;DHT22;48483;44.640;7.494;2023-03-24T09:00:58;14.40;99.90
39957;DHT22;48483;44.640;7.494;2023-03-24T09:03:26;14.50;99.90
39957;DHT22;48483;44.640;7.494;2023-03-24T09:05:55;14.60;99.90
39957;DHT22;48483;44.640;7.494;2023-03-24T09:08:25;14.50;99.90
39957;DHT22;48483;44.640;7.494;2023-03-24T09:10:51;14.40;99.90
39957;DHT22;48483;44.640;7.494;2023-03-24T09:13:19;14.40;99.90
39957;DHT22;48483;44.640;7.494;2023-03-24T09:15:47;14.50;99.90
39957;DHT22;48483;44.640;7.494;2023-03-24T09:18:14;14.60;99.90
39957;DHT22;48483;44.640;7.494;2023-03-24T09:20:43;14.60;99.90
39957;DHT22;48483;44.640;7.494;2023-03-24T09:23:10;14.70;99.90
39957;DHT22;48483;44.640;7.494;2023-03-24T09:25:38;14.90;99.90
39957;DHT22;48483;44.640;7.494;2023-03-24T09:28:04;15.00;99.90
39957;DHT22;48483;44.640;7.494;2023-03-24T09:30:33;15.00;99.90
39957;DHT22;48483;44.640;7.494;2023-03-24T09:33:00;14.80;99.90
39957;DHT22;48483;44.640;7.494;2023-03-24T09:35:27;14.80;99.90
39957;DHT22;48483;44.640;7.494;2023-03-24T09:37:55;14.80;99.90
39957;DHT22;48483;44.640;7.494;2023-03-24T09:40:24;14.70;99.90
39957;DHT22;48483;44.640;7.494;2023-03-24T09:42:54;14.80;99.90
39957;DHT22;48483;44.640;7.494;2023-03-24T09:45:21;14.90;99.90
39957;DHT22;48483;44.640;7.494;2023-03-24T09:47:53;14.90;99.90
39957;DHT22;48483;44.640;7.494;2023-03-24T09:50:24;15.00;99.90
39957;DHT22;48483;44.640;7.494;2023-03-24T09:52:55;15.00;99.90
39957;DHT22;48483;44.640;7.494;2023-03-24T09:55:27;15.00;99.90
39957;DHT22;48483;44.640;7.494;2023-03-24T09:57:57;15.00;99.90
39957;DHT22;48483;44.640;7.494;2023-03-24T10:00:26;15.00;99.90
39957;DHT22;48483;44.640;7.494;2023-03-24T10:02:57;15.00;99.90
39957;DHT22;48483;44.640;7.494;2023-03-24T10:05:29;15.10;99.90
39957;DHT22;48483;44.640;7.494;2023-03-24T10:08:08;15.00;99.90
39957;DHT22;48483;44.640;7.494;2023-03-24T10:10:42;14.80;99.90
39957;DHT22;48483;44.640;7.494;2023-03-24T10:13:17;14.80;99.90
39957;DHT22;48483;44.640;7.494;2023-03-24T10:15:48;14.90;99.90
39957;DHT22;48483;44.640;7.494;2023-03-24T10:18:25;15.00;99.90
39957;DHT22;48483;44.640;7.494;2023-03-24T10:20:57;14.90;99.90
39957;DHT22;48483;44.640;7.494;2023-03-24T10:23:34;14.90;99.90
39957;DHT22;48483;44.640;7.494;2023-03-24T10:26:08;14.90;99.90
39957;DHT22;48483;44.640;7.494;2023-03-24T10:28:42;15.00;99.90
39957;DHT22;48483;44.640;7.494;2023-03-24T10:31:12;15.00;99.90
39957;DHT22;48483;44.640;7.494;2023-03-24T10:33:42;15.10;99.90
39957;DHT22;48483;44.640;7.494;2023-03-24T10:36:11;15.20;99.90
39957;DHT22;48483;44.640;7.494;2023-03-24T10:38:40;15.30;99.90
39957;DHT22;48483;44.640;7.494;2023-03-24T10:41:13;15.30;99.90
39957;DHT22;48483;44.640;7.494;2023-03-24T10:43:42;15.40;99.90
39957;DHT22;48483;44.640;7.494;2023-03-24T10:46:13;15.30;99.90
39957;DHT22;48483;44.640;7.494;2023-03-24T10:48:43;15.30;99.90
39957;DHT22;48483;44.640;7.494;2023-03-24T10:51:17;15.30;99.90
39957;DHT22;48483;44.640;7.494;2023-03-24T10:53:47;15.40;99.90
39957;DHT22;48483;44.640;7.494;2023-03-24T10:56:18;15.30;99.90
39957;DHT22;48483;44.640;7.494;2023-03-24T10:59:02;15.40;99.90
39957;DHT22;48483;44.640;7.494;2023-03-24T11:01:29;15.40;99.90
39957;DHT22;48483;44.640;7.494;2023-03-24T11:03:59;15.30;99.90
39957;DHT22;48483;44.640;7.494;2023-03-24T11:06:26;15.20;99.90
39957;DHT22;48483;44.640;7.494;2023-03-24T11:09:08;15.20;99.90
39957;DHT22;48483;44.640;7.494;2023-03-24T11:11:36;15.30;99.90
39957;DHT22;48483;44.640;7.494;2023-03-24T11:14:03;15.40;99.90
39957;DHT22;48483;44.640;7.494;2023-03-24T11:16:42;15.40;99.90
39957;DHT22;48483;44.640;7.494;2023-03-24T11:19:17;15.40;99.90
39957;DHT22;48483;44.640;7.494;2023-03-24T11:21:46;15.40;99.90
39957;DHT22;48483;44.640;7.494;2023-03-24T11:24:16;15.50;99.90
39957;DHT22;48483;44.640;7.494;2023-03-24T11:26:45;15.50;99.90
39957;DHT22;48483;44.640;7.494;2023-03-24T11:29:18;15.50;99.90
39957;DHT22;48483;44.640;7.494;2023-03-24T11:31:50;15.40;99.90
39957;DHT22;48483;44.640;7.494;2023-03-24T11:34:21;15.40;99.90
39957;DHT22;48483;44.640;7.494;2023-03-24T11:36:52;15.40;99.90
39957;DHT22;48483;44.640;7.494;2023-03-24T11:39:24;15.30;99.90
39957;DHT22;48483;44.640;7.494;2023-03-24T11:41:59;15.30;99.90
39957;DHT22;48483;44.640;7.494;2023-03-24T11:44:31;15.30;99.90
39957;DHT22;48483;44.640;7.494;2023-03-24T11:47:01;15.40;99.90
39957;DHT22;48483;44.640;7.494;2023-03-24T11:49:30;15.50;99.90
39957;DHT22;48483;44.640;7.494;2023-03-24T11:51:58;15.60;99.90
39957;DHT22;48483;44.640;7.494;2023-03-24T11:54:30;15.80;99.90
39957;DHT22;48483;44.640;7.494;2023-03-24T11:57:00;15.90;99.90
39957;DHT22;48483;44.640;7.494;2023-03-24T11:59:34;16.00;99.90
39957;DHT22;48483;44.640;7.494;2023-03-24T12:02:11;16.10;99.90
39957;DHT22;48483;44.640;7.494;2023-03-24T12:05:00;16.10;99.90
39957;DHT22;48483;44.640;7.494;2023-03-24T12:07:59;16.10;99.90
39957;DHT22;48483;44.640;7.494;2023-03-24T12:10:43;16.10;99.90
39957;DHT22;48483;44.640;7.494;2023-03-24T12:13:15;16.20;99.90
39957;DHT22;48483;44.640;7.494;2023-03-24T12:15:51;16.20;99.90
39957;DHT22;48483;44.640;7.494;2023-03-24T12:18:36;16.20;99.90
39957;DHT22;48483;44.640;7.494;2023-03-24T12:21:11;16.40;99.90
39957;DHT22;48483;44.640;7.494;2023-03-24T12:23:49;16.40;99.90
39957;DHT22;48483;44.640;7.494;2023-03-24T12:26:22;16.30;99.90
39957;DHT22;48483;44.640;7.494;2023-03-24T12:28:56;16.40;99.90
39957;DHT22;48483;44.640;7.494;2023-03-24T12:31:44;16.50;99.90
39957;DHT22;48483;44.640;7.494;2023-03-24T12:34:40;16.50;99.90
39957;DHT22;48483;44.640;7.494;2023-03-24T12:37:16;16.50;99.90
39957;DHT22;48483;44.640;7.494;2023-03-24T12:39:55;16.60;99.90
39957;DHT22;48483;44.640;7.494;2023-03-24T12:42:25;16.70;99.90
39957;DHT22;48483;44.640;7.494;2023-03-24T12:45:11;16.70;99.90
39957;DHT22;48483;44.640;7.494;2023-03-24T12:48:02;16.80;99.90
39957;DHT22;48483;44.640;7.494;2023-03-24T12:50:38;16.70;99.90
39957;DHT22;48483;44.640;7.494;2023-03-24T12:53:32;16.80;99.90
39957;DHT22;48483;44.640;7.494;2023-03-24T12:56:07;16.90;99.90
39957;DHT22;48483;44.640;7.494;2023-03-24T12:58:41;16.90;99.90
39957;DHT22;48483;44.640;7.494;2023-03-24T13:01:15;17.00;99.90
39957;DHT22;48483;44.640;7.494;2023-03-24T13:03:46;17.00;99.90
39957;DHT22;48483;44.640;7.494;2023-03-24T13:06:18;16.90;99.90
39957;DHT22;48483;44.640;7.494;2023-03-24T13:09:04;16.90;99.90
39957;DHT22;48483;44.640;7.494;2023-03-24T13:11:37;16.90;99.90
39957;DHT22;48483;44.640;7.494;2023-03-24T13:14:12;16.80;99.90
39957;DHT22;48483;44.640;7.494;2023-03-24T13:16:43;16.80;99.90
39957;DHT22;48483;44.640;7.494;2023-03-24T13:19:16;16.80;99.90
39957;DHT22;48483;44.640;7.494;2023-03-24T13:21:43;16.80;99.90
39957;DHT22;48483;44.640;7.494;2023-03-24T13:24:12;16.80;99.90
39957;DHT22;48483;44.640;7.494;2023-03-24T13:26:41;16.70;99.90
39957;DHT22;48483;44.640;7.494;2023-03-24T13:29:18;16.80;99.90
39957;DHT22;48483;44.640;7.494;2023-03-24T13:31:51;16.80;99.90
39957;DHT22;48483;44.640;7.494;2023-03-24T13:34:26;16.70;99.90
39957;DHT22;48483;44.640;7.494;2023-03-24T13:36:57;16.60;99.90
39957;DHT22;48483;44.640;7.494;2023-03-24T13:39:26;16.60;99.90
39957;DHT22;48483;44.640;7.494;2023-03-24T13:41:55;16.60;99.90
39957;DHT22;48483;44.640;7.494;2023-03-24T13:44:27;16.60;99.90
39957;DHT22;48483;44.640;7.494;2023-03-24T13:47:04;16.40;99.90
39957;DHT22;48483;44.640;7.494;2023-03-24T13:49:32;16.30;99.90
39957;DHT22;48483;44.640;7.494;2023-03-24T13:52:03;16.30;99.90
39957;DHT22;48483;44.640;7.494;2023-03-24T13:54:30;16.30;99.90
39957;DHT22;48483;44.640;7.494;2023-03-24T13:57:03;16.30;99.90
39957;DHT22;48483;44.640;7.494;2023-03-24T13:59:38;16.30;99.90
39957;DHT22;48483;44.640;7.494;2023-03-24T14:02:21;16.20;99.90
39957;DHT22;48483;44.640;7.494;2023-03-24T14:04:49;16.10;99.90
39957;DHT22;48483;44.640;7.494;2023-03-24T14:07:34;16.20;99.90
39957;DHT22;48483;44.640;7.494;2023-03-24T14:13:21;16.10;99.90
39957;DHT22;48483;44.640;7.494;2023-03-24T14:15:51;16.10;99.90
39957;DHT22;48483;44.640;7.494;2023-03-24T14:18:40;16.10;99.90
39957;DHT22;48483;44.640;7.494;2023-03-24T14:21:08;16.00;99.90
39957;DHT22;48483;44.640;7.494;2023-03-24T14:23:36;16.00;99.90
39957;DHT22;48483;44.640;7.494;2023-03-24T14:26:05;16.00;99.90
39957;DHT22;48483;44.640;7.494;2023-03-24T14:28:36;15.90;99.90
39957;DHT22;48483;44.640;7.494;2023-03-24T14:31:17;15.90;99.90
39957;DHT22;48483;44.640;7.494;2023-03-24T14:34:01;16.00;99.90
39957;DHT22;48483;44.640;7.494;2023-03-24T14:36:32;16.00;99.90
39957;DHT22;48483;44.640;7.494;2023-03-24T14:39:22;16.00;99.90
39957;DHT22;48483;44.640;7.494;2023-03-24T14:41:52;16.10;99.90
39957;DHT22;48483;44.640;7.494;2023-03-24T14:44:52;16.00;99.90
39957;DHT22;48483;44.640;7.494;2023-03-24T14:47:22;16.00;99.90
39957;DHT22;48483;44.640;7.494;2023-03-24T14:49:51;16.00;99.90
39957;DHT22;48483;44.640;7.494;2023-03-24T14:52:20;16.00;99.90
39957;DHT22;48483;44.640;7.494;2023-03-24T14:54:51;16.00;99.90
39957;DHT22;48483;44.640;7.494;2023-03-24T14:57:22;16.00;99.90
39957;DHT22;48483;44.640;7.494;2023-03-24T14:59:54;16.10;99.90
39957;DHT22;48483;44.640;7.494;2023-03-24T15:02:31;16.00;99.90
39957;DHT22;48483;44.640;7.494;2023-03-24T15:05:18;16.00;99.90
39957;DHT22;48483;44.640;7.494;2023-03-24T15:07:58;16.10;99.90
39957;DHT22;48483;44.640;7.494;2023-03-24T15:10:25;16.20;99.90
39957;DHT22;48483;44.640;7.494;2023-03-24T15:12:57;16.20;99.90
39957;DHT22;48483;44.640;7.494;2023-03-24T15:15:24;16.10;99.90
39957;DHT22;48483;44.640;7.494;2023-03-24T15:17:52;16.10;99.90
39957;DHT22;48483;44.640;7.494;2023-03-24T15:20:21;16.10;99.90
39957;DHT22;48483;44.640;7.494;2023-03-24T15:22:48;16.20;99.90
39957;DHT22;48483;44.640;7.494;2023-03-24T15:25:16;16.10;99.90
39957;DHT22;48483;44.640;7.494;2023-03-24T15:27:48;16.20;99.90
39957;DHT22;48483;44.640;7.494;2023-03-24T15:30:15;16.30;99.90
39957;DHT22;48483;44.640;7.494;2023-03-24T15:32:43;16.30;99.90
39957;DHT22;48483;44.640;7.494;2023-03-24T15:35:14;16.30;99.90
39957;DHT22;48483;44.640;7.494;2023-03-24T15:37:43;16.20;99.90
39957;DHT22;48483;44.640;7.494;2023-03-24T15:40:37;16.30;99.90
39957;DHT22;48483;44.640;7.494;2023-03-24T15:43:06;16.30;99.90
39957;DHT22;48483;44.640;7.494;2023-03-24T15:45:35;16.30;99.90
39957;DHT22;48483;44.640;7.494;2023-03-24T15:48:05;16.30;99.90
39957;DHT22;48483;44.640;7.494;2023-03-24T15:50:36;16.30;99.90
39957;DHT22;48483;44.640;7.494;2023-03-24T15:53:05;16.30;99.90
39957;DHT22;48483;44.640;7.494;2023-03-24T15:55:34;16.40;99.90
39957;DHT22;48483;44.640;7.494;2023-03-24T15:58:17;16.30;99.90
39957;DHT22;48483;44.640;7.494;2023-03-24T16:00:46;16.40;99.90
39957;DHT22;48483;44.640;7.494;2023-03-24T16:03:13;16.40;99.90
39957;DHT22;48483;44.640;7.494;2023-03-24T16:05:47;16.40;99.90
39957;DHT22;48483;44.640;7.494;2023-03-24T16:08:25;16.40;99.90
39957;DHT22;48483;44.640;7.494;2023-03-24T16:10:57;16.30;99.90